createdAt,value
2023-05-19T00:01:17.811Z,13.80
2023-05-19T00:03:59.175Z,14.40
2023-05-19T00:06:29.327Z,14.30
2023-05-19T00:09:03.820Z,14.30
2023-05-19T00:13:59.063Z,13.40
2023-05-19T00:16:26.982Z,13.10
2023-05-19T00:18:54.520Z,14.00
2023-05-19T00:21:21.545Z,13.50
2023-05-19T00:23:48.631Z,14.10
2023-05-19T00:26:15.758Z,14.00
2023-05-19T00:28:46.378Z,12.50
2023-05-19T00:31:13.478Z,13.70
2023-05-19T00:33:40.532Z,12.40
2023-05-19T00:36:08.017Z,11.50
2023-05-19T00:38:36.050Z,12.70
2023-05-19T00:41:04.042Z,11.90
2023-05-19T00:43:31.003Z,12.20
2023-05-19T00:45:58.539Z,13.10
2023-05-19T00:48:25.857Z,12.30
2023-05-19T00:51:02.118Z,12.10
2023-05-19T00:53:29.602Z,10.80
2023-05-19T00:55:56.637Z,11.50
2023-05-19T00:58:24.010Z,12.10
2023-05-19T01:00:51.127Z,11.90
2023-05-19T01:03:20.836Z,11.00
2023-05-19T01:05:47.987Z,11.80
2023-05-19T01:08:15.121Z,11.30
2023-05-19T01:10:42.280Z,11.70
2023-05-19T01:13:09.720Z,11.60
2023-05-19T01:15:41.764Z,10.50
2023-05-19T01:18:12.347Z,10.40
2023-05-19T01:20:46.561Z,9.90
2023-05-19T01:23:26.025Z,10.30
2023-05-19T01:26:31.512Z,9.60
2023-05-19T01:29:08.261Z,10.40
2023-05-19T01:31:37.227Z,9.20
2023-05-19T01:34:06.208Z,8.80
2023-05-19T01:36:33.094Z,9.10
2023-05-19T01:39:01.315Z,9.30
2023-05-19T01:41:29.654Z,8.60
2023-05-19T01:43:56.969Z,8.20
2023-05-19T01:46:24.172Z,7.90
2023-05-19T01:48:51.594Z,8.40
2023-05-19T01:51:20.095Z,7.70
2023-05-19T01:53:47.000Z,7.30
2023-05-19T01:56:17.228Z,6.90
2023-05-19T01:58:49.024Z,6.80
2023-05-19T02:01:46.108Z,7.00
2023-05-19T02:04:44.085Z,7.00
2023-05-19T02:07:15.857Z,7.10
2023-05-19T02:09:59.475Z,6.60
2023-05-19T02:12:29.187Z,7.20
2023-05-19T02:15:07.546Z,7.00
2023-05-19T02:17:36.534Z,6.60
2023-05-19T02:20:04.861Z,5.90
2023-05-19T02:22:32.072Z,5.90
2023-05-19T02:24:59.235Z,7.00
2023-05-19T02:27:26.597Z,6.80
2023-05-19T02:29:53.635Z,6.70
2023-05-19T02:32:21.146Z,6.70
2023-05-19T02:34:48.575Z,6.50
2023-05-19T02:37:15.825Z,7.10
2023-05-19T02:39:43.588Z,6.20
2023-05-19T02:42:11.121Z,6.50
2023-05-19T02:44:38.012Z,6.00
2023-05-19T02:47:05.171Z,6.00
2023-05-19T02:49:36.133Z,6.20
2023-05-19T02:52:04.384Z,5.90
2023-05-19T02:54:31.792Z,5.70
2023-05-19T02:56:58.809Z,5.40
2023-05-19T02:59:25.900Z,5.50
2023-05-19T03:01:55.601Z,5.60
2023-05-19T03:04:22.725Z,6.20
2023-05-19T03:06:50.293Z,5.20
2023-05-19T03:09:17.447Z,4.90
2023-05-19T03:11:44.386Z,4.80
2023-05-19T03:14:12.309Z,4.60
2023-05-19T03:16:41.471Z,5.00
2023-05-19T03:19:09.132Z,4.40
2023-05-19T03:21:36.299Z,4.60
2023-05-19T03:24:03.423Z,5.30
2023-05-19T03:26:30.598Z,5.20
2023-05-19T03:28:57.777Z,4.40
2023-05-19T03:31:24.925Z,4.40
2023-05-19T03:33:52.492Z,4.30
2023-05-19T03:36:19.962Z,4.60
2023-05-19T03:38:47.240Z,4.50
2023-05-19T03:41:14.268Z,4.60
2023-05-19T03:43:41.332Z,4.20
2023-05-19T03:46:09.176Z,4.20
2023-05-19T03:48:42.017Z,4.50
2023-05-19T03:51:36.877Z,3.90
2023-05-19T03:54:17.327Z,4.00
2023-05-19T03:56:44.256Z,4.60
2023-05-19T03:59:12.568Z,4.60
2023-05-19T04:01:39.724Z,4.30
2023-05-19T04:04:06.922Z,4.30
2023-05-19T04:06:34.237Z,4.50
2023-05-19T04:09:02.648Z,3.70
2023-05-19T04:16:34.124Z,4.60
2023-05-19T04:19:01.209Z,4.90
2023-05-19T04:21:28.263Z,4.20
2023-05-19T04:23:55.303Z,4.50
2023-05-19T04:26:22.783Z,4.00
2023-05-19T04:28:50.119Z,4.40
2023-05-19T04:31:17.713Z,4.70
2023-05-19T04:33:44.955Z,4.70
2023-05-19T04:36:13.958Z,4.10
2023-05-19T04:38:41.083Z,5.00
2023-05-19T04:41:12.281Z,4.10
2023-05-19T04:43:42.038Z,4.90
2023-05-19T04:46:13.422Z,5.10
2023-05-19T04:48:41.666Z,4.40
2023-05-19T04:51:08.913Z,4.30
2023-05-19T04:53:36.805Z,4.10
2023-05-19T04:56:05.809Z,4.20
2023-05-19T04:58:33.573Z,3.90
2023-05-19T05:01:00.832Z,4.40
2023-05-19T05:03:28.310Z,9.00
2023-05-19T05:05:56.828Z,6.20
2023-05-19T05:08:23.928Z,4.00
2023-05-19T05:10:52.664Z,4.40
2023-05-19T05:13:24.083Z,4.20
2023-05-19T05:15:52.487Z,4.60
2023-05-19T05:18:19.988Z,4.40
2023-05-19T05:20:48.448Z,4.20
2023-05-19T05:23:16.949Z,4.50
2023-05-19T05:25:47.228Z,4.30
2023-05-19T05:28:14.927Z,4.60
2023-05-19T05:30:42.199Z,4.10
2023-05-19T05:33:09.609Z,4.50
2023-05-19T05:35:38.758Z,4.80
2023-05-19T05:38:06.914Z,21.60
2023-05-19T05:40:34.551Z,8.50
2023-05-19T05:43:03.046Z,5.10
2023-05-19T05:45:32.425Z,4.80
2023-05-19T05:48:01.030Z,4.30
2023-05-19T05:50:28.721Z,4.60
2023-05-19T05:52:56.119Z,4.90
2023-05-19T05:55:24.472Z,4.30
2023-05-19T05:57:52.053Z,4.10
2023-05-19T06:00:19.891Z,4.80
2023-05-19T06:02:51.495Z,4.60
2023-05-19T06:05:19.510Z,4.70
2023-05-19T06:07:47.302Z,4.50
2023-05-19T06:10:18.384Z,4.50
2023-05-19T06:12:45.708Z,4.60
2023-05-19T06:15:12.871Z,5.20
2023-05-19T06:17:39.971Z,5.10
2023-05-19T06:20:08.864Z,5.40
2023-05-19T06:22:36.583Z,4.90
2023-05-19T06:25:04.196Z,5.30
2023-05-19T06:27:33.300Z,10.60
2023-05-19T06:30:02.436Z,7.10
2023-05-19T06:32:31.981Z,5.60
2023-05-19T06:35:00.629Z,5.10
2023-05-19T06:37:27.636Z,5.30
2023-05-19T06:39:55.583Z,5.40
2023-05-19T06:42:23.101Z,4.80
2023-05-19T06:51:49.985Z,4.80
2023-05-19T06:54:17.234Z,4.70
2023-05-19T06:56:45.329Z,5.30
2023-05-19T06:59:13.790Z,5.40
2023-05-19T07:01:40.808Z,5.50
2023-05-19T07:04:08.602Z,7.90
2023-05-19T07:06:35.888Z,8.20
2023-05-19T07:09:05.291Z,5.80
2023-05-19T07:11:32.929Z,9.50
2023-05-19T07:13:59.926Z,6.40
2023-05-19T07:16:28.079Z,5.90
2023-05-19T07:18:55.105Z,5.80
2023-05-19T07:21:22.031Z,6.00
2023-05-19T07:23:49.318Z,5.40
2023-05-19T07:26:16.174Z,5.60
2023-05-19T07:28:43.861Z,5.40
2023-05-19T07:31:10.814Z,5.90
2023-05-19T07:33:37.694Z,5.00
2023-05-19T07:36:04.774Z,5.40
2023-05-19T07:38:34.634Z,5.40
2023-05-19T07:41:02.475Z,5.90
2023-05-19T07:43:29.464Z,5.60
2023-05-19T07:45:56.564Z,6.30
2023-05-19T07:48:25.881Z,5.30
2023-05-19T07:50:53.002Z,6.20
2023-05-19T07:53:20.246Z,5.20
2023-05-19T07:55:47.218Z,5.00
2023-05-19T07:58:14.382Z,5.70
2023-05-19T08:00:43.425Z,6.10
2023-05-19T08:03:10.406Z,6.10
2023-05-19T08:05:37.814Z,5.50
2023-05-19T08:08:05.213Z,7.20
2023-05-19T08:10:32.212Z,5.90
2023-05-19T08:12:59.435Z,6.20
2023-05-19T08:15:26.619Z,5.90
2023-05-19T08:17:53.654Z,5.50
2023-05-19T08:20:22.625Z,6.10
2023-05-19T08:22:49.499Z,5.80
2023-05-19T08:25:16.644Z,5.10
2023-05-19T08:27:43.545Z,5.50
2023-05-19T08:30:11.158Z,5.50
2023-05-19T08:32:38.396Z,4.50
2023-05-19T08:35:05.577Z,5.10
2023-05-19T08:37:34.124Z,5.40
2023-05-19T08:40:01.537Z,5.50
2023-05-19T08:42:28.584Z,4.90
2023-05-19T08:44:55.737Z,5.30
2023-05-19T08:47:23.093Z,5.50
2023-05-19T08:49:52.716Z,6.20
2023-05-19T08:52:32.238Z,6.10
2023-05-19T08:55:04.822Z,6.00
2023-05-19T08:57:33.001Z,6.60
2023-05-19T09:00:14.524Z,6.50
2023-05-19T09:02:50.606Z,6.70
2023-05-19T09:05:28.387Z,7.30
2023-05-19T09:07:55.512Z,7.40
2023-05-19T09:10:22.870Z,7.70
2023-05-19T09:12:50.524Z,7.30
2023-05-19T09:15:19.324Z,6.40
2023-05-19T09:17:48.305Z,6.40
2023-05-19T09:20:16.958Z,6.90
2023-05-19T09:22:48.480Z,6.20
2023-05-19T09:25:33.810Z,7.00
2023-05-19T09:28:01.057Z,6.80
2023-05-19T09:30:27.951Z,6.80
2023-05-19T09:32:54.875Z,7.00
2023-05-19T09:35:21.863Z,7.30
2023-05-19T09:37:48.764Z,7.40
2023-05-19T09:40:15.940Z,6.90
2023-05-19T09:42:44.371Z,8.10
2023-05-19T09:45:11.796Z,7.10
2023-05-19T09:47:41.365Z,7.30
2023-05-19T09:50:10.059Z,6.00
2023-05-19T09:52:42.814Z,5.80
2023-05-19T09:55:11.118Z,5.40
2023-05-19T09:57:38.750Z,5.70
2023-05-19T10:00:17.859Z,6.70
2023-05-19T10:02:46.645Z,7.30
2023-05-19T10:05:20.200Z,8.10
2023-05-19T10:07:48.746Z,8.90
2023-05-19T10:10:16.003Z,8.10
2023-05-19T10:12:43.265Z,8.10
2023-05-19T10:15:11.933Z,7.40
2023-05-19T10:17:40.670Z,7.00
2023-05-19T10:20:14.903Z,6.60
2023-05-19T10:22:43.143Z,7.00
2023-05-19T10:25:10.981Z,10.70
2023-05-19T10:27:40.832Z,7.40
2023-05-19T10:30:15.036Z,7.50
2023-05-19T10:32:44.609Z,6.50
2023-05-19T10:35:47.278Z,6.30
2023-05-19T10:38:48.425Z,5.90
2023-05-19T10:41:43.996Z,6.00
2023-05-19T10:44:39.771Z,5.30
2023-05-19T10:47:08.052Z,6.10
2023-05-19T10:49:35.997Z,6.50
2023-05-19T10:52:03.033Z,5.50
2023-05-19T10:54:43.687Z,5.90
2023-05-19T10:57:17.451Z,5.90
2023-05-19T10:59:47.412Z,6.60
2023-05-19T11:02:36.885Z,5.80
2023-05-19T11:05:10.928Z,6.30
2023-05-19T11:07:38.010Z,8.30
2023-05-19T11:10:08.494Z,8.30
2023-05-19T11:12:45.418Z,6.70
2023-05-19T11:15:16.057Z,7.30
2023-05-19T11:17:45.766Z,5.90
2023-05-19T11:20:26.441Z,6.20
2023-05-19T11:23:15.933Z,6.40
2023-05-19T11:25:47.140Z,6.10
2023-05-19T11:28:25.899Z,7.40
2023-05-19T11:30:54.712Z,5.90
2023-05-19T11:33:21.799Z,7.30
2023-05-19T11:35:50.518Z,6.90
2023-05-19T11:38:19.028Z,6.10
2023-05-19T11:40:47.370Z,6.20
2023-05-19T11:43:14.411Z,4.80
2023-05-19T11:45:41.645Z,4.50
2023-05-19T11:48:12.807Z,5.60
2023-05-19T11:50:44.212Z,6.50
2023-05-19T11:53:13.306Z,5.60
2023-05-19T11:55:46.272Z,5.70
2023-05-19T11:58:13.642Z,5.60
2023-05-19T12:00:41.659Z,5.90
2023-05-19T12:03:09.440Z,6.00
2023-05-19T12:05:41.817Z,5.40
2023-05-19T12:08:11.166Z,6.80
2023-05-19T12:10:38.636Z,5.90
2023-05-19T12:13:08.310Z,5.60
2023-05-19T12:15:35.633Z,6.10
2023-05-19T12:18:03.188Z,7.20
2023-05-19T12:20:32.728Z,6.60
2023-05-19T12:23:00.389Z,7.50
2023-05-19T12:25:28.324Z,6.70
2023-05-19T12:28:04.965Z,5.90
2023-05-19T12:30:33.095Z,6.50
2023-05-19T12:33:01.839Z,6.30
2023-05-19T12:35:34.364Z,6.20
2023-05-19T12:38:05.366Z,6.40
2023-05-19T12:40:36.874Z,6.10
2023-05-19T12:43:04.214Z,6.60
2023-05-19T12:45:35.625Z,5.90
2023-05-19T12:48:06.972Z,6.30
2023-05-19T12:50:34.729Z,6.60
2023-05-19T12:53:02.202Z,5.60
2023-05-19T12:55:30.098Z,6.50
2023-05-19T12:57:58.472Z,6.40
2023-05-19T13:00:28.702Z,7.20
2023-05-19T13:03:00.114Z,6.90
2023-05-19T13:05:36.861Z,6.90
2023-05-19T13:08:08.666Z,11.30
2023-05-19T13:10:37.418Z,7.20
2023-05-19T13:13:04.728Z,6.70
2023-05-19T13:15:34.562Z,6.90
2023-05-19T13:18:03.269Z,6.00
2023-05-19T13:20:31.157Z,6.10
2023-05-19T13:22:58.841Z,6.80
2023-05-19T13:25:27.010Z,7.20
2023-05-19T13:27:54.879Z,6.30
2023-05-19T13:30:22.121Z,6.50
2023-05-19T13:32:49.225Z,7.10
2023-05-19T13:35:16.447Z,7.00
2023-05-19T13:37:43.606Z,7.30
2023-05-19T13:40:11.431Z,8.20
2023-05-19T13:42:38.528Z,9.70
2023-05-19T13:45:06.211Z,9.40
2023-05-19T13:47:33.410Z,8.00
2023-05-19T13:50:00.388Z,9.00
2023-05-19T13:52:29.814Z,8.70
2023-05-19T13:54:57.634Z,8.80
2023-05-19T13:57:27.907Z,9.50
2023-05-19T14:00:02.532Z,10.50
2023-05-19T14:02:39.842Z,10.30
2023-05-19T14:05:08.325Z,8.90
2023-05-19T14:07:35.698Z,9.10
2023-05-19T14:10:04.161Z,9.60
2023-05-19T14:12:40.396Z,10.00
2023-05-19T14:15:11.553Z,10.10
2023-05-19T14:17:39.411Z,10.00
2023-05-19T14:20:07.836Z,9.40
2023-05-19T14:22:34.740Z,9.40
2023-05-19T14:25:02.421Z,9.00
2023-05-19T14:27:29.704Z,9.20
2023-05-19T14:29:56.718Z,9.30
2023-05-19T14:32:23.751Z,9.40
2023-05-19T14:34:53.830Z,8.60
2023-05-19T14:37:21.090Z,8.80
2023-05-19T14:39:48.141Z,8.80
2023-05-19T14:42:15.067Z,8.90
2023-05-19T14:44:42.148Z,9.10
2023-05-19T14:47:11.439Z,7.70
2023-05-19T14:49:39.853Z,8.30
2023-05-19T14:52:08.534Z,8.60
2023-05-19T14:54:35.586Z,8.70
2023-05-19T14:57:03.269Z,9.00
2023-05-19T14:59:30.153Z,8.40
2023-05-19T15:01:57.072Z,8.40
2023-05-19T15:04:24.232Z,8.90
2023-05-19T15:07:05.680Z,8.30
2023-05-19T15:09:37.059Z,8.60
2023-05-19T15:12:04.074Z,8.30
2023-05-19T15:14:31.540Z,8.20
2023-05-19T15:16:59.175Z,7.90
2023-05-19T15:19:26.436Z,8.80
2023-05-19T15:21:53.764Z,8.30
2023-05-19T15:24:20.774Z,7.90
2023-05-19T15:26:47.751Z,7.30
2023-05-19T15:29:14.807Z,7.60
2023-05-19T15:31:42.145Z,8.10
2023-05-19T15:34:09.333Z,7.30
2023-05-19T15:36:36.479Z,7.70
2023-05-19T15:39:04.078Z,7.90
2023-05-19T15:41:30.966Z,9.70
2023-05-19T15:44:00.410Z,8.10
2023-05-19T15:46:27.771Z,7.50
2023-05-19T15:48:54.963Z,7.70
2023-05-19T15:51:22.213Z,7.70
2023-05-19T15:53:49.442Z,7.90
2023-05-19T15:56:16.703Z,7.60
2023-05-19T15:58:43.758Z,8.20
2023-05-19T16:01:10.970Z,7.90
2023-05-19T16:03:38.043Z,8.90
2023-05-19T16:06:05.222Z,7.50
2023-05-19T16:08:32.305Z,7.70
2023-05-19T16:10:59.341Z,7.50
2023-05-19T16:13:26.491Z,8.00
2023-05-19T16:15:53.451Z,8.60
2023-05-19T16:18:20.901Z,7.70
2023-05-19T16:20:47.799Z,7.90
2023-05-19T16:23:14.915Z,7.40
2023-05-19T16:25:42.209Z,8.90
2023-05-19T16:28:09.217Z,8.10
2023-05-19T16:30:36.710Z,7.40
2023-05-19T16:33:04.121Z,7.70
2023-05-19T16:35:31.273Z,7.40
2023-05-19T16:37:58.459Z,7.70
2023-05-19T16:40:26.238Z,6.90
2023-05-19T16:42:53.751Z,9.60
2023-05-19T16:45:20.731Z,7.90
2023-05-19T16:47:47.718Z,7.40
2023-05-19T16:50:14.979Z,8.30
2023-05-19T16:52:42.320Z,7.20
2023-05-19T16:55:09.992Z,8.10
2023-05-19T16:57:37.045Z,7.40
2023-05-19T17:00:04.835Z,7.30
2023-05-19T17:02:31.988Z,6.90
2023-05-19T17:04:59.200Z,7.10
2023-05-19T17:07:27.969Z,7.10
2023-05-19T17:09:56.074Z,7.10
2023-05-19T17:12:23.460Z,7.00
2023-05-19T17:14:52.180Z,6.50
2023-05-19T17:17:19.320Z,6.60
2023-05-19T17:19:47.016Z,7.30
2023-05-19T17:22:14.443Z,6.90
2023-05-19T17:24:42.098Z,7.30
2023-05-19T17:27:09.155Z,7.10
2023-05-19T17:29:36.907Z,6.50
2023-05-19T17:32:04.631Z,5.70
2023-05-19T17:34:31.755Z,6.50
2023-05-19T17:36:58.802Z,6.30
2023-05-19T17:39:25.691Z,6.10
2023-05-19T17:41:52.603Z,6.10
2023-05-19T17:44:19.756Z,6.50
2023-05-19T17:46:46.696Z,6.40
2023-05-19T17:49:14.036Z,6.40
2023-05-19T17:51:41.311Z,6.90
2023-05-19T17:54:08.787Z,6.40
2023-05-19T17:56:35.743Z,5.70
2023-05-19T17:59:03.245Z,6.30
2023-05-19T18:01:30.847Z,6.70
2023-05-19T18:03:58.538Z,6.40
2023-05-19T18:06:25.698Z,6.80
2023-05-19T18:08:53.572Z,6.70
2023-05-19T18:11:21.674Z,6.00
2023-05-19T18:13:48.744Z,6.20
2023-05-19T18:16:15.766Z,6.40
2023-05-19T18:18:44.718Z,6.10
2023-05-19T18:21:14.464Z,6.70
2023-05-19T18:23:41.587Z,6.40
2023-05-19T18:26:08.678Z,7.10
2023-05-19T18:28:35.732Z,7.00
2023-05-19T18:31:04.019Z,7.40
2023-05-19T18:33:31.319Z,6.80
2023-05-19T18:35:58.631Z,6.30
2023-05-19T18:38:25.684Z,6.60
2023-05-19T18:40:52.841Z,7.20
2023-05-19T18:43:19.706Z,7.50
2023-05-19T18:45:47.384Z,7.10
2023-05-19T18:48:15.809Z,6.80
2023-05-19T18:50:44.733Z,6.80
2023-05-19T18:53:12.002Z,6.50
2023-05-19T18:55:38.920Z,6.30
2023-05-19T18:58:06.350Z,6.50
2023-05-19T19:00:35.680Z,6.50
2023-05-19T19:03:03.013Z,6.60
2023-05-19T19:05:30.331Z,7.00
2023-05-19T19:07:57.704Z,6.90
2023-05-19T19:10:24.681Z,6.90
2023-05-19T19:12:51.608Z,6.50
2023-05-19T19:15:18.661Z,7.20
2023-05-19T19:17:45.942Z,7.20
2023-05-19T19:20:13.626Z,7.10
2023-05-19T19:22:40.743Z,7.10
2023-05-19T19:25:08.310Z,6.90
2023-05-19T19:27:35.790Z,6.90
2023-05-19T19:30:03.010Z,7.30
2023-05-19T19:32:31.667Z,7.00
2023-05-19T19:34:58.872Z,6.80
2023-05-19T19:37:25.857Z,6.20
2023-05-19T19:39:52.793Z,7.00
2023-05-19T19:42:19.935Z,6.80
2023-05-19T19:44:47.196Z,7.40
2023-05-19T19:47:14.254Z,7.00
2023-05-19T19:49:41.606Z,6.40
2023-05-19T19:52:08.584Z,7.00
2023-05-19T19:54:35.720Z,7.10
2023-05-19T19:57:02.629Z,7.10
2023-05-19T19:59:30.565Z,7.50
2023-05-19T20:01:57.675Z,7.30
2023-05-19T20:04:25.249Z,6.60
2023-05-19T20:06:52.618Z,7.10
2023-05-19T20:09:19.570Z,6.20
2023-05-19T20:11:46.412Z,7.10
2023-05-19T20:14:13.573Z,7.30
2023-05-19T20:16:41.324Z,6.70
2023-05-19T20:19:09.370Z,6.60
2023-05-19T20:21:36.683Z,7.60
2023-05-19T20:24:03.884Z,6.70
2023-05-19T20:26:31.811Z,7.10
2023-05-19T20:28:59.179Z,7.10
2023-05-19T20:31:26.197Z,6.80
2023-05-19T20:33:53.319Z,7.20
2023-05-19T20:36:20.438Z,6.90
2023-05-19T20:38:48.215Z,6.60
2023-05-19T20:41:15.254Z,6.30
2023-05-19T20:43:42.417Z,7.10
2023-05-19T20:46:09.630Z,7.30
2023-05-19T20:48:36.742Z,6.70
2023-05-19T20:51:04.011Z,6.90
2023-05-19T20:53:31.142Z,6.70
2023-05-19T20:55:58.201Z,7.00
2023-05-19T20:58:30.404Z,7.20
2023-05-19T21:00:58.150Z,6.80
2023-05-19T21:03:27.133Z,6.60
2023-05-19T21:05:55.221Z,6.00
2023-05-19T21:08:22.790Z,6.20
2023-05-19T21:10:49.834Z,6.10
2023-05-19T21:13:18.111Z,6.70
2023-05-19T21:15:45.378Z,6.70
2023-05-19T21:18:12.677Z,6.30
2023-05-19T21:20:39.891Z,6.60
2023-05-19T21:23:06.958Z,6.00
2023-05-19T21:25:34.002Z,6.10
2023-05-19T21:28:01.369Z,6.10
2023-05-19T21:30:28.538Z,6.10
2023-05-19T21:32:55.900Z,6.70
2023-05-19T21:35:23.134Z,6.20
2023-05-19T21:37:50.187Z,5.80
2023-05-19T21:40:17.168Z,6.00
2023-05-19T21:42:44.194Z,6.30
2023-05-19T21:45:11.700Z,5.60
2023-05-19T21:47:38.918Z,6.30
2023-05-19T21:50:06.984Z,5.90
2023-05-19T21:52:36.350Z,6.70
2023-05-19T21:55:03.450Z,6.00
2023-05-19T21:57:30.468Z,6.10
2023-05-19T21:59:57.567Z,6.20
2023-05-19T22:02:24.618Z,5.90
2023-05-19T22:04:51.974Z,5.80
2023-05-19T22:07:26.905Z,6.20
2023-05-19T22:09:54.266Z,5.50
2023-05-19T22:12:21.202Z,6.10
2023-05-19T22:14:48.221Z,6.00
2023-05-19T22:17:15.734Z,6.20
2023-05-19T22:19:42.802Z,6.10
2023-05-19T22:22:14.408Z,6.20
2023-05-19T22:24:42.123Z,6.10
2023-05-19T22:27:08.987Z,6.00
2023-05-19T22:29:38.946Z,6.40
2023-05-19T22:32:07.819Z,5.90
2023-05-19T22:34:34.772Z,5.80
2023-05-19T22:37:02.095Z,6.10
2023-05-19T22:39:28.979Z,6.80
2023-05-19T22:41:55.840Z,6.10
2023-05-19T22:44:22.716Z,6.30
2023-05-19T22:46:49.694Z,5.90
2023-05-19T22:49:16.764Z,5.60
2023-05-19T22:51:43.799Z,6.00
2023-05-19T22:54:10.953Z,5.80
2023-05-19T22:56:38.008Z,5.80
2023-05-19T22:59:05.158Z,5.50
2023-05-19T23:01:32.060Z,6.00
2023-05-19T23:03:59.207Z,5.90
2023-05-19T23:06:26.230Z,5.70
2023-05-19T23:09:03.920Z,5.70
2023-05-19T23:11:30.976Z,6.70
2023-05-19T23:13:57.921Z,6.10
2023-05-19T23:16:24.917Z,5.90
2023-05-19T23:18:51.950Z,5.60
2023-05-19T23:21:19.393Z,5.80
2023-05-19T23:23:46.574Z,5.50
2023-05-19T23:26:13.714Z,5.80
2023-05-19T23:29:03.676Z,5.90
2023-05-19T23:31:30.806Z,6.20
2023-05-19T23:33:57.989Z,5.50
2023-05-19T23:36:25.075Z,5.50
2023-05-19T23:38:51.941Z,5.80
2023-05-19T23:41:19.080Z,5.40
2023-05-19T23:43:45.952Z,5.90
2023-05-19T23:46:13.087Z,5.50
2023-05-19T23:48:40.227Z,6.10
2023-05-19T23:51:07.273Z,5.40
2023-05-19T23:53:34.339Z,6.20
2023-05-19T23:56:01.481Z,5.80
2023-05-19T23:58:28.384Z,5.80
